sensor_id;sensor_type;location;lat;lon;timestamp;temperature;humidity
71117;SHT31;58775;46.992;9.518;2023-05-28T00:01:33;15.53;79.60
71117;SHT31;58775;46.992;9.518;2023-05-28T00:03:37;15.42;80.07
71117;SHT31;58775;46.992;9.518;2023-05-28T00:05:40;15.18;82.05
71117;SHT31;58775;46.992;9.518;2023-05-28T00:07:43;15.15;82.13
71117;SHT31;58775;46.992;9.518;2023-05-28T00:09:49;15.09;81.43
71117;SHT31;58775;46.992;9.518;2023-05-28T00:11:53;15.03;81.49
71117;SHT31;58775;46.992;9.518;2023-05-28T00:14:05;14.96;83.05
71117;SHT31;58775;46.992;9.518;2023-05-28T00:16:30;14.85;83.37
71117;SHT31;58775;46.992;9.518;2023-05-28T00:18:38;14.82;83.73
71117;SHT31;58775;46.992;9.518;2023-05-28T00:20:44;14.68;84.57
71117;SHT31;58775;46.992;9.518;2023-05-28T00:22:47;14.76;84.20
71117;SHT31;58775;46.992;9.518;2023-05-28T00:24:51;14.68;84.71
71117;SHT31;58775;46.992;9.518;2023-05-28T00:26:54;14.76;82.98
71117;SHT31;58775;46.992;9.518;2023-05-28T00:28:57;14.92;82.30
71117;SHT31;58775;46.992;9.518;2023-05-28T00:31:00;14.88;81.95
71117;SHT31;58775;46.992;9.518;2023-05-28T00:33:04;14.68;83.46
71117;SHT31;58775;46.992;9.518;2023-05-28T00:35:08;14.61;84.08
71117;SHT31;58775;46.992;9.518;2023-05-28T00:37:11;14.48;84.87
71117;SHT31;58775;46.992;9.518;2023-05-28T00:39:17;14.51;85.00
71117;SHT31;58775;46.992;9.518;2023-05-28T00:41:21;14.48;84.52
71117;SHT31;58775;46.992;9.518;2023-05-28T00:43:24;14.55;83.61
71117;SHT31;58775;46.992;9.518;2023-05-28T00:45:27;14.68;83.11
71117;SHT31;58775;46.992;9.518;2023-05-28T00:47:29;14.79;82.77
71117;SHT31;58775;46.992;9.518;2023-05-28T00:49:33;14.72;83.09
71117;SHT31;58775;46.992;9.518;2023-05-28T00:51:35;14.64;83.48
71117;SHT31;58775;46.992;9.518;2023-05-28T00:53:40;14.58;84.11
71117;SHT31;58775;46.992;9.518;2023-05-28T00:55:44;14.48;84.93
71117;SHT31;58775;46.992;9.518;2023-05-28T00:57:47;14.51;85.32
71117;SHT31;58775;46.992;9.518;2023-05-28T00:59:51;14.41;85.51
71117;SHT31;58775;46.992;9.518;2023-05-28T01:01:55;14.41;85.11
71117;SHT31;58775;46.992;9.518;2023-05-28T01:03:57;14.45;84.20
71117;SHT31;58775;46.992;9.518;2023-05-28T01:06:01;14.49;83.61
71117;SHT31;58775;46.992;9.518;2023-05-28T01:08:06;14.45;83.37
71117;SHT31;58775;46.992;9.518;2023-05-28T01:10:10;14.31;84.87
71117;SHT31;58775;46.992;9.518;2023-05-28T01:12:16;14.23;85.70
71117;SHT31;58775;46.992;9.518;2023-05-28T01:14:21;14.27;85.27
71117;SHT31;58775;46.992;9.518;2023-05-28T01:16:23;14.33;84.69
71117;SHT31;58775;46.992;9.518;2023-05-28T01:18:29;14.31;85.11
71117;SHT31;58775;46.992;9.518;2023-05-28T01:20:33;14.37;84.43
71117;SHT31;58775;46.992;9.518;2023-05-28T01:22:37;14.14;85.58
71117;SHT31;58775;46.992;9.518;2023-05-28T01:24:43;14.16;85.25
71117;SHT31;58775;46.992;9.518;2023-05-28T01:26:46;14.25;84.46
71117;SHT31;58775;46.992;9.518;2023-05-28T01:28:50;14.14;85.63
71117;SHT31;58775;46.992;9.518;2023-05-28T01:30:52;13.96;86.36
71117;SHT31;58775;46.992;9.518;2023-05-28T01:32:55;14.04;86.27
71117;SHT31;58775;46.992;9.518;2023-05-28T01:34:57;13.96;86.72
71117;SHT31;58775;46.992;9.518;2023-05-28T01:37:02;13.91;86.74
71117;SHT31;58775;46.992;9.518;2023-05-28T01:39:07;13.76;87.36
71117;SHT31;58775;46.992;9.518;2023-05-28T01:41:15;13.80;86.69
71117;SHT31;58775;46.992;9.518;2023-05-28T01:43:19;13.90;86.15
71117;SHT31;58775;46.992;9.518;2023-05-28T01:45:27;13.90;86.17
71117;SHT31;58775;46.992;9.518;2023-05-28T01:47:35;14.00;85.59
71117;SHT31;58775;46.992;9.518;2023-05-28T01:49:52;13.99;85.49
71117;SHT31;58775;46.992;9.518;2023-05-28T01:52:03;13.90;86.39
71117;SHT31;58775;46.992;9.518;2023-05-28T01:54:08;13.90;86.80
71117;SHT31;58775;46.992;9.518;2023-05-28T01:56:22;13.87;86.64
71117;SHT31;58775;46.992;9.518;2023-05-28T01:58:31;13.84;87.25
71117;SHT31;58775;46.992;9.518;2023-05-28T02:01:04;13.84;87.25
71117;SHT31;58775;46.992;9.518;2023-05-28T02:03:09;13.83;86.92
71117;SHT31;58775;46.992;9.518;2023-05-28T02:05:14;13.80;86.33
71117;SHT31;58775;46.992;9.518;2023-05-28T02:07:16;13.80;86.15
71117;SHT31;58775;46.992;9.518;2023-05-28T02:09:19;13.74;85.67
71117;SHT31;58775;46.992;9.518;2023-05-28T02:11:21;13.70;86.09
71117;SHT31;58775;46.992;9.518;2023-05-28T02:13:25;13.82;84.96
71117;SHT31;58775;46.992;9.518;2023-05-28T02:15:29;13.70;85.92
71117;SHT31;58775;46.992;9.518;2023-05-28T02:17:31;13.55;86.20
71117;SHT31;58775;46.992;9.518;2023-05-28T02:19:34;13.53;86.34
71117;SHT31;58775;46.992;9.518;2023-05-28T02:21:36;13.63;85.72
71117;SHT31;58775;46.992;9.518;2023-05-28T02:23:44;13.49;87.21
71117;SHT31;58775;46.992;9.518;2023-05-28T02:25:46;13.43;87.64
71117;SHT31;58775;46.992;9.518;2023-05-28T02:27:48;13.32;87.80
71117;SHT31;58775;46.992;9.518;2023-05-28T02:29:51;13.38;87.93
71117;SHT31;58775;46.992;9.518;2023-05-28T02:31:56;13.35;88.47
71117;SHT31;58775;46.992;9.518;2023-05-28T02:33:58;13.32;88.39
71117;SHT31;58775;46.992;9.518;2023-05-28T02:36:01;13.42;88.28
71117;SHT31;58775;46.992;9.518;2023-05-28T02:38:04;13.39;88.98
71117;SHT31;58775;46.992;9.518;2023-05-28T02:40:08;13.42;88.62
71117;SHT31;58775;46.992;9.518;2023-05-28T02:42:11;13.52;87.80
71117;SHT31;58775;46.992;9.518;2023-05-28T02:44:14;13.62;87.45
71117;SHT31;58775;46.992;9.518;2023-05-28T02:46:17;13.52;87.28
71117;SHT31;58775;46.992;9.518;2023-05-28T02:48:18;13.45;88.20
71117;SHT31;58775;46.992;9.518;2023-05-28T02:50:21;13.35;88.81
71117;SHT31;58775;46.992;9.518;2023-05-28T02:52:42;13.43;88.66
71117;SHT31;58775;46.992;9.518;2023-05-28T02:54:44;13.56;88.62
71117;SHT31;58775;46.992;9.518;2023-05-28T02:56:46;13.51;88.87
71117;SHT31;58775;46.992;9.518;2023-05-28T02:58:50;13.59;88.55
71117;SHT31;58775;46.992;9.518;2023-05-28T03:00:53;13.63;87.88
71117;SHT31;58775;46.992;9.518;2023-05-28T03:02:56;13.72;87.05
71117;SHT31;58775;46.992;9.518;2023-05-28T03:04:58;13.73;86.71
71117;SHT31;58775;46.992;9.518;2023-05-28T03:07:04;13.83;86.14
71117;SHT31;58775;46.992;9.518;2023-05-28T03:09:09;13.67;87.09
71117;SHT31;58775;46.992;9.518;2023-05-28T03:11:11;13.51;88.32
71117;SHT31;58775;46.992;9.518;2023-05-28T03:13:14;13.45;88.54
71117;SHT31;58775;46.992;9.518;2023-05-28T03:15:17;13.46;88.24
71117;SHT31;58775;46.992;9.518;2023-05-28T03:17:20;13.70;87.40
71117;SHT31;58775;46.992;9.518;2023-05-28T03:19:23;13.51;87.41
71117;SHT31;58775;46.992;9.518;2023-05-28T03:21:25;13.59;87.11
71117;SHT31;58775;46.992;9.518;2023-05-28T03:23:27;13.41;88.24
71117;SHT31;58775;46.992;9.518;2023-05-28T03:25:44;13.52;87.97
71117;SHT31;58775;46.992;9.518;2023-05-28T03:27:46;13.62;87.37
71117;SHT31;58775;46.992;9.518;2023-05-28T03:29:48;13.55;88.18
71117;SHT31;58775;46.992;9.518;2023-05-28T03:31:55;13.39;88.80
71117;SHT31;58775;46.992;9.518;2023-05-28T03:33:58;13.46;88.45
71117;SHT31;58775;46.992;9.518;2023-05-28T03:36:01;13.49;88.27
71117;SHT31;58775;46.992;9.518;2023-05-28T03:38:05;13.38;88.82
71117;SHT31;58775;46.992;9.518;2023-05-28T03:40:08;13.36;88.76
71117;SHT31;58775;46.992;9.518;2023-05-28T03:42:11;13.48;88.49
71117;SHT31;58775;46.992;9.518;2023-05-28T03:44:15;13.48;88.38
71117;SHT31;58775;46.992;9.518;2023-05-28T03:46:20;13.53;87.71
71117;SHT31;58775;46.992;9.518;2023-05-28T03:48:22;13.53;87.48
71117;SHT31;58775;46.992;9.518;2023-05-28T03:50:25;13.35;88.90
71117;SHT31;58775;46.992;9.518;2023-05-28T03:52:28;13.45;88.58
71117;SHT31;58775;46.992;9.518;2023-05-28T03:54:42;13.51;88.11
71117;SHT31;58775;46.992;9.518;2023-05-28T03:57:02;13.42;88.50
71117;SHT31;58775;46.992;9.518;2023-05-28T04:33:38;13.41;89.08
71117;SHT31;58775;46.992;9.518;2023-05-28T04:35:59;13.39;89.11
71117;SHT31;58775;46.992;9.518;2023-05-28T04:38:41;13.35;89.77
71117;SHT31;58775;46.992;9.518;2023-05-28T04:41:01;13.29;89.26
71117;SHT31;58775;46.992;9.518;2023-05-28T04:43:06;13.42;89.18
71117;SHT31;58775;46.992;9.518;2023-05-28T04:45:11;13.52;89.01
71117;SHT31;58775;46.992;9.518;2023-05-28T04:47:55;13.56;89.25
71117;SHT31;58775;46.992;9.518;2023-05-28T04:50:19;13.58;89.07
71117;SHT31;58775;46.992;9.518;2023-05-28T04:52:22;13.65;88.45
71117;SHT31;58775;46.992;9.518;2023-05-28T04:54:36;13.77;87.90
71117;SHT31;58775;46.992;9.518;2023-05-28T04:56:44;13.67;89.12
71117;SHT31;58775;46.992;9.518;2023-05-28T04:58:48;13.73;88.46
71117;SHT31;58775;46.992;9.518;2023-05-28T05:00:55;13.89;87.17
71117;SHT31;58775;46.992;9.518;2023-05-28T05:02:58;13.84;87.87
71117;SHT31;58775;46.992;9.518;2023-05-28T05:05:01;13.79;88.61
71117;SHT31;58775;46.992;9.518;2023-05-28T05:07:04;13.83;88.12
71117;SHT31;58775;46.992;9.518;2023-05-28T05:09:06;13.90;87.62
71117;SHT31;58775;46.992;9.518;2023-05-28T05:11:09;13.94;87.42
71117;SHT31;58775;46.992;9.518;2023-05-28T05:13:13;14.09;87.22
71117;SHT31;58775;46.992;9.518;2023-05-28T05:15:18;14.25;86.17
71117;SHT31;58775;46.992;9.518;2023-05-28T05:17:20;14.31;86.01
71117;SHT31;58775;46.992;9.518;2023-05-28T05:19:22;14.41;86.17
71117;SHT31;58775;46.992;9.518;2023-05-28T05:21:24;14.40;85.72
71117;SHT31;58775;46.992;9.518;2023-05-28T05:23:26;14.40;85.96
71117;SHT31;58775;46.992;9.518;2023-05-28T05:25:29;14.48;85.95
71117;SHT31;58775;46.992;9.518;2023-05-28T05:27:34;14.51;86.10
71117;SHT31;58775;46.992;9.518;2023-05-28T05:29:38;14.61;85.79
71117;SHT31;58775;46.992;9.518;2023-05-28T05:31:41;14.58;86.88
71117;SHT31;58775;46.992;9.518;2023-05-28T05:33:45;14.51;86.82
71117;SHT31;58775;46.992;9.518;2023-05-28T05:35:47;14.67;85.94
71117;SHT31;58775;46.992;9.518;2023-05-28T05:38:03;14.71;85.24
71117;SHT31;58775;46.992;9.518;2023-05-28T05:40:26;14.69;85.02
71117;SHT31;58775;46.992;9.518;2023-05-28T06:22:17;18.03;73.38
71117;SHT31;58775;46.992;9.518;2023-05-28T06:24:20;18.52;71.94
71117;SHT31;58775;46.992;9.518;2023-05-28T06:26:23;18.94;71.33
71117;SHT31;58775;46.992;9.518;2023-05-28T06:28:26;19.42;71.17
71117;SHT31;58775;46.992;9.518;2023-05-28T06:30:29;19.63;69.83
71117;SHT31;58775;46.992;9.518;2023-05-28T06:32:32;19.92;67.61
71117;SHT31;58775;46.992;9.518;2023-05-28T06:34:38;19.98;68.02
71117;SHT31;58775;46.992;9.518;2023-05-28T06:36:44;20.43;67.22
71117;SHT31;58775;46.992;9.518;2023-05-28T06:38:47;19.97;67.67
71117;SHT31;58775;46.992;9.518;2023-05-28T06:40:50;20.68;65.96
71117;SHT31;58775;46.992;9.518;2023-05-28T06:42:54;20.72;65.45
71117;SHT31;58775;46.992;9.518;2023-05-28T06:45:19;21.54;64.53
71117;SHT31;58775;46.992;9.518;2023-05-28T06:47:26;21.91;61.95
71117;SHT31;58775;46.992;9.518;2023-05-28T06:49:31;21.80;62.33
71117;SHT31;58775;46.992;9.518;2023-05-28T06:51:46;21.90;62.44
71117;SHT31;58775;46.992;9.518;2023-05-28T06:53:54;22.22;61.91
71117;SHT31;58775;46.992;9.518;2023-05-28T06:56:05;22.12;62.17
71117;SHT31;58775;46.992;9.518;2023-05-28T06:58:20;22.66;61.19
71117;SHT31;58775;46.992;9.518;2023-05-28T07:00:49;22.82;61.34
71117;SHT31;58775;46.992;9.518;2023-05-28T07:09:32;23.40;60.28
71117;SHT31;58775;46.992;9.518;2023-05-28T07:11:46;23.55;57.71
71117;SHT31;58775;46.992;9.518;2023-05-28T07:13:49;23.39;59.87
71117;SHT31;58775;46.992;9.518;2023-05-28T07:15:54;24.02;57.36
71117;SHT31;58775;46.992;9.518;2023-05-28T07:17:56;25.11;54.18
71117;SHT31;58775;46.992;9.518;2023-05-28T07:19:59;25.89;53.35
71117;SHT31;58775;46.992;9.518;2023-05-28T07:22:21;25.74;52.63
71117;SHT31;58775;46.992;9.518;2023-05-28T07:24:26;26.02;53.56
71117;SHT31;58775;46.992;9.518;2023-05-28T07:26:29;26.97;50.32
71117;SHT31;58775;46.992;9.518;2023-05-28T07:28:32;27.69;49.50
71117;SHT31;58775;46.992;9.518;2023-05-28T07:30:35;27.19;52.13
71117;SHT31;58775;46.992;9.518;2023-05-28T07:32:41;27.58;48.97
71117;SHT31;58775;46.992;9.518;2023-05-28T07:34:43;27.42;50.51
71117;SHT31;58775;46.992;9.518;2023-05-28T07:36:48;28.08;48.59
71117;SHT31;58775;46.992;9.518;2023-05-28T07:38:50;28.79;46.45
71117;SHT31;58775;46.992;9.518;2023-05-28T07:40:54;25.68;52.34
71117;SHT31;58775;46.992;9.518;2023-05-28T07:43:01;26.02;53.43
71117;SHT31;58775;46.992;9.518;2023-05-28T07:45:06;28.21;48.31
71117;SHT31;58775;46.992;9.518;2023-05-28T07:47:10;27.99;49.60
71117;SHT31;58775;46.992;9.518;2023-05-28T07:49:32;28.20;48.31
71117;SHT31;58775;46.992;9.518;2023-05-28T07:51:35;28.59;46.31
71117;SHT31;58775;46.992;9.518;2023-05-28T07:53:44;28.45;46.58
71117;SHT31;58775;46.992;9.518;2023-05-28T07:55:53;26.71;51.90
71117;SHT31;58775;46.992;9.518;2023-05-28T07:57:57;28.41;48.40
71117;SHT31;58775;46.992;9.518;2023-05-28T08:00:01;29.09;46.90
71117;SHT31;58775;46.992;9.518;2023-05-28T08:02:13;29.18;46.80
71117;SHT31;58775;46.992;9.518;2023-05-28T08:04:17;27.43;49.40
71117;SHT31;58775;46.992;9.518;2023-05-28T08:06:20;26.43;53.48
71117;SHT31;58775;46.992;9.518;2023-05-28T08:08:23;26.85;53.23
71117;SHT31;58775;46.992;9.518;2023-05-28T08:10:27;27.21;51.62
71117;SHT31;58775;46.992;9.518;2023-05-28T08:12:30;28.21;48.85
71117;SHT31;58775;46.992;9.518;2023-05-28T08:14:33;29.32;44.49
71117;SHT31;58775;46.992;9.518;2023-05-28T08:16:41;29.84;45.26
71117;SHT31;58775;46.992;9.518;2023-05-28T08:19:02;28.98;45.71
71117;SHT31;58775;46.992;9.518;2023-05-28T08:21:06;27.86;48.31
71117;SHT31;58775;46.992;9.518;2023-05-28T08:23:09;28.62;45.15
71117;SHT31;58775;46.992;9.518;2023-05-28T08:25:13;28.61;46.77
71117;SHT31;58775;46.992;9.518;2023-05-28T08:27:16;29.39;45.72
71117;SHT31;58775;46.992;9.518;2023-05-28T08:29:17;29.74;44.98
71117;SHT31;58775;46.992;9.518;2023-05-28T08:31:28;29.66;45.90
71117;SHT31;58775;46.992;9.518;2023-05-28T08:33:49;29.25;44.81
71117;SHT31;58775;46.992;9.518;2023-05-28T08:35:52;29.45;45.62
71117;SHT31;58775;46.992;9.518;2023-05-28T08:37:56;29.61;46.23
71117;SHT31;58775;46.992;9.518;2023-05-28T08:40:11;30.51;44.76
71117;SHT31;58775;46.992;9.518;2023-05-28T08:42:22;30.61;44.11
71117;SHT31;58775;46.992;9.518;2023-05-28T08:44:25;30.00;44.59
71117;SHT31;58775;46.992;9.518;2023-05-28T08:46:31;29.74;44.58
71117;SHT31;58775;46.992;9.518;2023-05-28T08:48:57;27.56;49.32
71117;SHT31;58775;46.992;9.518;2023-05-28T08:51:01;28.36;48.15
71117;SHT31;58775;46.992;9.518;2023-05-28T08:53:11;28.65;49.07
71117;SHT31;58775;46.992;9.518;2023-05-28T08:55:16;29.73;46.80
71117;SHT31;58775;46.992;9.518;2023-05-28T08:57:25;28.88;47.78
71117;SHT31;58775;46.992;9.518;2023-05-28T08:59:33;28.30;47.70
71117;SHT31;58775;46.992;9.518;2023-05-28T09:01:37;27.70;49.18
71117;SHT31;58775;46.992;9.518;2023-05-28T09:03:44;27.94;49.38
71117;SHT31;58775;46.992;9.518;2023-05-28T09:05:53;27.73;48.66
71117;SHT31;58775;46.992;9.518;2023-05-28T09:07:56;27.96;49.53
71117;SHT31;58775;46.992;9.518;2023-05-28T09:10:00;27.12;52.01
71117;SHT31;58775;46.992;9.518;2023-05-28T09:12:23;27.55;50.16
71117;SHT31;58775;46.992;9.518;2023-05-28T09:14:38;28.65;49.08
71117;SHT31;58775;46.992;9.518;2023-05-28T09:16:43;26.81;51.09
71117;SHT31;58775;46.992;9.518;2023-05-28T09:18:51;26.33;52.99
71117;SHT31;58775;46.992;9.518;2023-05-28T09:20:59;26.65;53.49
71117;SHT31;58775;46.992;9.518;2023-05-28T09:23:05;25.61;54.52
71117;SHT31;58775;46.992;9.518;2023-05-28T09:25:38;25.44;53.89
71117;SHT31;58775;46.992;9.518;2023-05-28T09:27:49;24.59;57.10
71117;SHT31;58775;46.992;9.518;2023-05-28T09:30:03;24.46;56.32
71117;SHT31;58775;46.992;9.518;2023-05-28T09:32:08;24.86;56.10
71117;SHT31;58775;46.992;9.518;2023-05-28T09:34:15;24.46;56.22
71117;SHT31;58775;46.992;9.518;2023-05-28T09:36:20;25.33;54.26
71117;SHT31;58775;46.992;9.518;2023-05-28T09:38:22;26.70;53.28
71117;SHT31;58775;46.992;9.518;2023-05-28T09:40:27;27.46;50.85
71117;SHT31;58775;46.992;9.518;2023-05-28T09:42:40;26.99;50.40
71117;SHT31;58775;46.992;9.518;2023-05-28T09:44:49;27.52;49.04
71117;SHT31;58775;46.992;9.518;2023-05-28T09:46:50;28.00;50.35
71117;SHT31;58775;46.992;9.518;2023-05-28T09:48:56;28.24;50.25
71117;SHT31;58775;46.992;9.518;2023-05-28T09:51:04;28.04;49.26
71117;SHT31;58775;46.992;9.518;2023-05-28T09:53:08;26.81;50.19
71117;SHT31;58775;46.992;9.518;2023-05-28T09:55:15;26.36;50.42
71117;SHT31;58775;46.992;9.518;2023-05-28T09:57:32;26.00;51.49
71117;SHT31;58775;46.992;9.518;2023-05-28T09:59:38;26.29;51.32
71117;SHT31;58775;46.992;9.518;2023-05-28T10:01:44;26.07;51.68
71117;SHT31;58775;46.992;9.518;2023-05-28T10:04:09;25.65;52.48
71117;SHT31;58775;46.992;9.518;2023-05-28T10:06:19;26.23;51.68
71117;SHT31;58775;46.992;9.518;2023-05-28T10:08:25;25.64;52.32
71117;SHT31;58775;46.992;9.518;2023-05-28T10:10:29;26.64;50.72
71117;SHT31;58775;46.992;9.518;2023-05-28T10:12:33;26.50;51.38
71117;SHT31;58775;46.992;9.518;2023-05-28T10:14:37;27.08;50.76
71117;SHT31;58775;46.992;9.518;2023-05-28T10:16:41;28.03;50.00
71117;SHT31;58775;46.992;9.518;2023-05-28T10:18:44;28.43;49.01
71117;SHT31;58775;46.992;9.518;2023-05-28T10:20:46;29.18;47.64
71117;SHT31;58775;46.992;9.518;2023-05-28T10:22:49;29.40;45.11
71117;SHT31;58775;46.992;9.518;2023-05-28T10:24:53;29.19;46.51
71117;SHT31;58775;46.992;9.518;2023-05-28T10:26:56;28.58;46.91
71117;SHT31;58775;46.992;9.518;2023-05-28T10:29:03;27.34;48.75
71117;SHT31;58775;46.992;9.518;2023-05-28T10:31:10;28.04;50.21
71117;SHT31;58775;46.992;9.518;2023-05-28T10:33:17;28.51;46.72
71117;SHT31;58775;46.992;9.518;2023-05-28T10:35:21;28.79;47.43
71117;SHT31;58775;46.992;9.518;2023-05-28T10:37:24;27.82;47.40
71117;SHT31;58775;46.992;9.518;2023-05-28T10:39:49;28.00;50.07
71117;SHT31;58775;46.992;9.518;2023-05-28T10:41:50;27.70;49.01
71117;SHT31;58775;46.992;9.518;2023-05-28T10:44:05;28.74;45.67
71117;SHT31;58775;46.992;9.518;2023-05-28T10:54:23;27.52;50.00
71117;SHT31;58775;46.992;9.518;2023-05-28T10:56:26;27.96;49.16
71117;SHT31;58775;46.992;9.518;2023-05-28T10:58:36;28.07;47.69
71117;SHT31;58775;46.992;9.518;2023-05-28T11:00:42;28.24;48.00
71117;SHT31;58775;46.992;9.518;2023-05-28T11:02:45;28.07;49.54
71117;SHT31;58775;46.992;9.518;2023-05-28T11:08:48;28.22;49.79
71117;SHT31;58775;46.992;9.518;2023-05-28T11:10:51;29.42;47.00
71117;SHT31;58775;46.992;9.518;2023-05-28T11:12:54;28.24;47.48
71117;SHT31;58775;46.992;9.518;2023-05-28T11:14:57;29.57;46.50
71117;SHT31;58775;46.992;9.518;2023-05-28T11:17:00;29.84;46.61
71117;SHT31;58775;46.992;9.518;2023-05-28T11:19:05;29.47;46.39
71117;SHT31;58775;46.992;9.518;2023-05-28T11:21:08;30.07;46.80
71117;SHT31;58775;46.992;9.518;2023-05-28T11:23:14;30.76;44.38
71117;SHT31;58775;46.992;9.518;2023-05-28T11:25:19;31.19;42.94
71117;SHT31;58775;46.992;9.518;2023-05-28T11:27:28;30.22;46.07
71117;SHT31;58775;46.992;9.518;2023-05-28T11:29:32;30.68;45.03
71117;SHT31;58775;46.992;9.518;2023-05-28T11:31:43;31.02;43.50
71117;SHT31;58775;46.992;9.518;2023-05-28T11:33:49;29.20;46.41
71117;SHT31;58775;46.992;9.518;2023-05-28T11:36:00;30.51;44.79
71117;SHT31;58775;46.992;9.518;2023-05-28T11:38:03;30.66;44.58
71117;SHT31;58775;46.992;9.518;2023-05-28T11:40:07;29.82;45.77
71117;SHT31;58775;46.992;9.518;2023-05-28T11:42:15;28.61;45.90
71117;SHT31;58775;46.992;9.518;2023-05-28T11:44:19;29.39;45.10
71117;SHT31;58775;46.992;9.518;2023-05-28T11:46:22;29.33;45.93
71117;SHT31;58775;46.992;9.518;2023-05-28T11:48:26;28.21;46.61
71117;SHT31;58775;46.992;9.518;2023-05-28T11:50:28;29.30;46.80
71117;SHT31;58775;46.992;9.518;2023-05-28T11:52:30;28.16;48.68
71117;SHT31;58775;46.992;9.518;2023-05-28T11:54:32;28.25;48.28
71117;SHT31;58775;46.992;9.518;2023-05-28T11:56:34;28.52;47.01
71117;SHT31;58775;46.992;9.518;2023-05-28T11:58:37;28.24;47.60
71117;SHT31;58775;46.992;9.518;2023-05-28T12:00:42;28.04;47.66
71117;SHT31;58775;46.992;9.518;2023-05-28T12:02:46;27.15;48.93
71117;SHT31;58775;46.992;9.518;2023-05-28T12:05:00;27.93;49.42
71117;SHT31;58775;46.992;9.518;2023-05-28T12:07:05;28.24;48.68
71117;SHT31;58775;46.992;9.518;2023-05-28T12:09:07;28.51;48.64
71117;SHT31;58775;46.992;9.518;2023-05-28T12:11:09;29.10;46.07
71117;SHT31;58775;46.992;9.518;2023-05-28T12:13:13;29.30;46.94
71117;SHT31;58775;46.992;9.518;2023-05-28T12:15:27;28.48;47.79
71117;SHT31;58775;46.992;9.518;2023-05-28T12:17:40;28.75;46.12
71117;SHT31;58775;46.992;9.518;2023-05-28T12:19:42;28.18;45.99
71117;SHT31;58775;46.992;9.518;2023-05-28T12:21:44;28.95;44.96
71117;SHT31;58775;46.992;9.518;2023-05-28T12:23:48;29.06;49.11
71117;SHT31;58775;46.992;9.518;2023-05-28T12:25:50;28.95;46.07
71117;SHT31;58775;46.992;9.518;2023-05-28T12:27:52;30.00;44.13
71117;SHT31;58775;46.992;9.518;2023-05-28T12:29:56;29.37;45.19
71117;SHT31;58775;46.992;9.518;2023-05-28T12:31:58;29.71;44.56
71117;SHT31;58775;46.992;9.518;2023-05-28T12:34:01;30.08;43.56
71117;SHT31;58775;46.992;9.518;2023-05-28T12:36:04;30.69;43.00
71117;SHT31;58775;46.992;9.518;2023-05-28T12:38:07;30.17;41.73
71117;SHT31;58775;46.992;9.518;2023-05-28T12:40:10;30.28;42.24
71117;SHT31;58775;46.992;9.518;2023-05-28T12:42:15;30.28;43.01
71117;SHT31;58775;46.992;9.518;2023-05-28T12:44:21;30.29;42.48
71117;SHT31;58775;46.992;9.518;2023-05-28T12:46:22;30.31;42.61
71117;SHT31;58775;46.992;9.518;2023-05-28T12:48:24;30.48;44.46
71117;SHT31;58775;46.992;9.518;2023-05-28T12:50:28;30.17;42.83
71117;SHT31;58775;46.992;9.518;2023-05-28T12:52:30;29.56;43.75
71117;SHT31;58775;46.992;9.518;2023-05-28T12:54:40;29.84;44.05
71117;SHT31;58775;46.992;9.518;2023-05-28T12:57:32;28.54;45.87
71117;SHT31;58775;46.992;9.518;2023-05-28T12:59:40;29.02;43.02
71117;SHT31;58775;46.992;9.518;2023-05-28T13:01:42;29.27;44.39
71117;SHT31;58775;46.992;9.518;2023-05-28T13:03:46;29.10;43.24
71117;SHT31;58775;46.992;9.518;2023-05-28T13:05:53;29.02;45.22
71117;SHT31;58775;46.992;9.518;2023-05-28T13:07:55;28.88;43.66
71117;SHT31;58775;46.992;9.518;2023-05-28T13:09:57;28.64;45.42
71117;SHT31;58775;46.992;9.518;2023-05-28T13:11:59;28.98;45.14
71117;SHT31;58775;46.992;9.518;2023-05-28T13:14:02;28.89;45.63
71117;SHT31;58775;46.992;9.518;2023-05-28T13:16:05;27.96;44.24
71117;SHT31;58775;46.992;9.518;2023-05-28T13:18:07;28.28;47.10
71117;SHT31;58775;46.992;9.518;2023-05-28T13:20:12;28.57;46.69
71117;SHT31;58775;46.992;9.518;2023-05-28T13:22:22;28.88;44.73
71117;SHT31;58775;46.992;9.518;2023-05-28T13:24:24;28.92;43.42
71117;SHT31;58775;46.992;9.518;2023-05-28T13:26:33;28.51;44.05
71117;SHT31;58775;46.992;9.518;2023-05-28T13:28:37;28.47;43.81
71117;SHT31;58775;46.992;9.518;2023-05-28T13:30:40;27.62;45.80
71117;SHT31;58775;46.992;9.518;2023-05-28T13:32:42;26.97;45.69
71117;SHT31;58775;46.992;9.518;2023-05-28T13:34:46;27.05;46.46
71117;SHT31;58775;46.992;9.518;2023-05-28T13:36:50;26.90;46.28
71117;SHT31;58775;46.992;9.518;2023-05-28T13:38:52;27.02;46.27
71117;SHT31;58775;46.992;9.518;2023-05-28T13:41:02;26.81;47.21
71117;SHT31;58775;46.992;9.518;2023-05-28T13:43:04;26.76;49.59
71117;SHT31;58775;46.992;9.518;2023-05-28T13:45:08;26.54;48.75
71117;SHT31;58775;46.992;9.518;2023-05-28T13:47:12;26.27;48.90
71117;SHT31;58775;46.992;9.518;2023-05-28T13:49:15;26.65;48.81
71117;SHT31;58775;46.992;9.518;2023-05-28T13:51:21;26.35;48.69
71117;SHT31;58775;46.992;9.518;2023-05-28T13:53:24;26.85;47.64
71117;SHT31;58775;46.992;9.518;2023-05-28T13:55:28;26.67;47.84
71117;SHT31;58775;46.992;9.518;2023-05-28T13:57:29;26.30;48.46
71117;SHT31;58775;46.992;9.518;2023-05-28T13:59:31;26.50;48.92
71117;SHT31;58775;46.992;9.518;2023-05-28T14:01:34;26.15;49.62
71117;SHT31;58775;46.992;9.518;2023-05-28T14:03:37;26.63;48.03
71117;SHT31;58775;46.992;9.518;2023-05-28T14:05:42;26.36;47.60
71117;SHT31;58775;46.992;9.518;2023-05-28T14:07:48;26.41;47.91
71117;SHT31;58775;46.992;9.518;2023-05-28T14:09:57;26.27;47.47
71117;SHT31;58775;46.992;9.518;2023-05-28T14:16:29;26.16;46.06
71117;SHT31;58775;46.992;9.518;2023-05-28T14:18:34;26.56;47.39
71117;SHT31;58775;46.992;9.518;2023-05-28T16:57:18;23.09;52.38
71117;SHT31;58775;46.992;9.518;2023-05-28T17:34:47;22.89;53.25
71117;SHT31;58775;46.992;9.518;2023-05-28T17:37:42;22.95;55.41
71117;SHT31;58775;46.992;9.518;2023-05-28T17:46:52;22.75;52.92
71117;SHT31;58775;46.992;9.518;2023-05-28T17:52:52;22.49;51.18
71117;SHT31;58775;46.992;9.518;2023-05-28T17:57:39;22.44;54.19
71117;SHT31;58775;46.992;9.518;2023-05-28T18:19:50;21.96;54.68
71117;SHT31;58775;46.992;9.518;2023-05-28T18:21:55;21.84;55.48
